sensor_id;sensor_type;location;lat;lon;timestamp;temperature;humidity
11093;DHT22;5600;50.864;6.102;2023-01-01T00:02:25;16.60;99.90
11093;DHT22;5600;50.864;6.102;2023-01-01T00:05:25;16.50;99.90
11093;DHT22;5600;50.864;6.102;2023-01-01T00:08:26;16.60;99.90
11093;DHT22;5600;50.864;6.102;2023-01-01T00:11:27;16.40;99.90
11093;DHT22;5600;50.864;6.102;2023-01-01T00:14:27;16.40;99.90
11093;DHT22;5600;50.864;6.102;2023-01-01T00:17:28;16.30;99.90
11093;DHT22;5600;50.864;6.102;2023-01-01T00:20:29;16.30;99.90
11093;DHT22;5600;50.864;6.102;2023-01-01T00:23:30;16.30;99.90
11093;DHT22;5600;50.864;6.102;2023-01-01T00:26:31;16.30;99.90
11093;DHT22;5600;50.864;6.102;2023-01-01T00:32:32;16.10;99.90
11093;DHT22;5600;50.864;6.102;2023-01-01T00:35:33;16.00;99.90
11093;DHT22;5600;50.864;6.102;2023-01-01T00:38:35;15.90;99.90
11093;DHT22;5600;50.864;6.102;2023-01-01T00:41:35;15.80;99.90
11093;DHT22;5600;50.864;6.102;2023-01-01T00:44:36;15.80;99.90
11093;DHT22;5600;50.864;6.102;2023-01-01T00:47:36;15.80;99.90
11093;DHT22;5600;50.864;6.102;2023-01-01T00:50:37;15.70;99.90
11093;DHT22;5600;50.864;6.102;2023-01-01T00:53:38;15.80;99.90
11093;DHT22;5600;50.864;6.102;2023-01-01T00:56:40;15.80;99.90
11093;DHT22;5600;50.864;6.102;2023-01-01T00:59:40;15.80;99.90
11093;DHT22;5600;50.864;6.102;2023-01-01T01:02:41;15.90;99.90
11093;DHT22;5600;50.864;6.102;2023-01-01T01:05:41;15.80;99.90
11093;DHT22;5600;50.864;6.102;2023-01-01T01:08:45;15.90;99.90
11093;DHT22;5600;50.864;6.102;2023-01-01T01:11:45;15.90;99.90
11093;DHT22;5600;50.864;6.102;2023-01-01T01:14:46;15.90;99.90
11093;DHT22;5600;50.864;6.102;2023-01-01T01:17:47;15.90;99.90
11093;DHT22;5600;50.864;6.102;2023-01-01T01:20:49;15.90;99.90
11093;DHT22;5600;50.864;6.102;2023-01-01T01:23:52;15.90;99.90
11093;DHT22;5600;50.864;6.102;2023-01-01T01:26:53;15.90;99.90
11093;DHT22;5600;50.864;6.102;2023-01-01T01:29:54;15.90;99.90
11093;DHT22;5600;50.864;6.102;2023-01-01T01:32:54;15.80;99.90
11093;DHT22;5600;50.864;6.102;2023-01-01T01:35:55;15.90;99.90
11093;DHT22;5600;50.864;6.102;2023-01-01T01:38:56;15.80;99.90
11093;DHT22;5600;50.864;6.102;2023-01-01T01:41:56;15.80;99.90
11093;DHT22;5600;50.864;6.102;2023-01-01T01:45:00;15.80;99.90
11093;DHT22;5600;50.864;6.102;2023-01-01T01:48:01;15.80;99.90
11093;DHT22;5600;50.864;6.102;2023-01-01T01:51:02;15.90;99.90
11093;DHT22;5600;50.864;6.102;2023-01-01T01:54:08;15.80;99.90
11093;DHT22;5600;50.864;6.102;2023-01-01T01:57:10;15.80;99.90
11093;DHT22;5600;50.864;6.102;2023-01-01T02:00:13;15.80;99.90
11093;DHT22;5600;50.864;6.102;2023-01-01T02:03:27;15.80;99.90
11093;DHT22;5600;50.864;6.102;2023-01-01T02:06:31;15.70;99.90
11093;DHT22;5600;50.864;6.102;2023-01-01T02:09:32;15.70;99.90
11093;DHT22;5600;50.864;6.102;2023-01-01T02:12:33;15.70;99.90
11093;DHT22;5600;50.864;6.102;2023-01-01T02:15:40;15.70;99.90
11093;DHT22;5600;50.864;6.102;2023-01-01T02:25:37;15.70;99.90
11093;DHT22;5600;50.864;6.102;2023-01-01T02:35:29;15.70;99.90
11093;DHT22;5600;50.864;6.102;2023-01-01T02:38:40;15.70;99.90
11093;DHT22;5600;50.864;6.102;2023-01-01T02:41:44;15.70;99.90
11093;DHT22;5600;50.864;6.102;2023-01-01T02:44:50;15.70;99.90
11093;DHT22;5600;50.864;6.102;2023-01-01T02:47:53;15.70;99.90
11093;DHT22;5600;50.864;6.102;2023-01-01T02:50:56;15.70;99.90
11093;DHT22;5600;50.864;6.102;2023-01-01T02:57:38;15.60;99.90
11093;DHT22;5600;50.864;6.102;2023-01-01T03:00:40;15.60;99.90
11093;DHT22;5600;50.864;6.102;2023-01-01T03:07:15;15.60;99.90
11093;DHT22;5600;50.864;6.102;2023-01-01T03:10:31;15.60;99.90
11093;DHT22;5600;50.864;6.102;2023-01-01T03:13:48;15.60;99.90
11093;DHT22;5600;50.864;6.102;2023-01-01T03:20:12;15.50;99.90
11093;DHT22;5600;50.864;6.102;2023-01-01T03:23:25;15.50;99.90
11093;DHT22;5600;50.864;6.102;2023-01-01T03:26:28;15.50;99.90
11093;DHT22;5600;50.864;6.102;2023-01-01T03:29:34;15.50;99.90
11093;DHT22;5600;50.864;6.102;2023-01-01T03:32:40;15.50;99.90
11093;DHT22;5600;50.864;6.102;2023-01-01T03:36:09;15.40;99.90
11093;DHT22;5600;50.864;6.102;2023-01-01T03:39:17;15.30;99.90
11093;DHT22;5600;50.864;6.102;2023-01-01T03:42:36;15.30;99.90
11093;DHT22;5600;50.864;6.102;2023-01-01T03:45:42;15.30;99.90
11093;DHT22;5600;50.864;6.102;2023-01-01T03:48:44;15.30;99.90
11093;DHT22;5600;50.864;6.102;2023-01-01T03:52:03;15.30;99.90
11093;DHT22;5600;50.864;6.102;2023-01-01T03:55:08;15.40;99.90
11093;DHT22;5600;50.864;6.102;2023-01-01T03:58:23;15.30;99.90
11093;DHT22;5600;50.864;6.102;2023-01-01T04:01:30;15.20;99.90
11093;DHT22;5600;50.864;6.102;2023-01-01T04:04:33;15.20;99.90
11093;DHT22;5600;50.864;6.102;2023-01-01T04:07:34;13.80;99.90
11093;DHT22;5600;50.864;6.102;2023-01-01T04:10:38;15.10;99.90
11093;DHT22;5600;50.864;6.102;2023-01-01T04:13:46;15.10;99.90
11093;DHT22;5600;50.864;6.102;2023-01-01T04:16:46;15.20;99.90
11093;DHT22;5600;50.864;6.102;2023-01-01T04:19:47;15.20;99.90
11093;DHT22;5600;50.864;6.102;2023-01-01T04:22:48;15.10;99.90
11093;DHT22;5600;50.864;6.102;2023-01-01T04:25:48;15.10;99.90
11093;DHT22;5600;50.864;6.102;2023-01-01T04:28:49;15.10;99.90
11093;DHT22;5600;50.864;6.102;2023-01-01T04:31:50;15.10;99.90
11093;DHT22;5600;50.864;6.102;2023-01-01T04:34:50;15.10;99.90
11093;DHT22;5600;50.864;6.102;2023-01-01T04:37:51;15.00;99.90
11093;DHT22;5600;50.864;6.102;2023-01-01T04:40:59;15.00;99.90
11093;DHT22;5600;50.864;6.102;2023-01-01T04:44:00;15.00;99.90
11093;DHT22;5600;50.864;6.102;2023-01-01T04:47:01;15.10;99.90
11093;DHT22;5600;50.864;6.102;2023-01-01T04:50:02;15.00;99.90
11093;DHT22;5600;50.864;6.102;2023-01-01T04:53:03;15.00;99.90
11093;DHT22;5600;50.864;6.102;2023-01-01T04:56:12;15.00;99.90
11093;DHT22;5600;50.864;6.102;2023-01-01T04:59:13;15.00;99.90
11093;DHT22;5600;50.864;6.102;2023-01-01T05:02:14;15.00;99.90
11093;DHT22;5600;50.864;6.102;2023-01-01T05:05:14;14.90;99.90
11093;DHT22;5600;50.864;6.102;2023-01-01T05:08:15;14.90;99.90
11093;DHT22;5600;50.864;6.102;2023-01-01T05:11:19;14.90;99.90
11093;DHT22;5600;50.864;6.102;2023-01-01T05:14:20;14.90;99.90
11093;DHT22;5600;50.864;6.102;2023-01-01T05:17:20;14.80;99.90
11093;DHT22;5600;50.864;6.102;2023-01-01T05:20:21;14.80;99.90
11093;DHT22;5600;50.864;6.102;2023-01-01T05:23:22;14.80;99.90
11093;DHT22;5600;50.864;6.102;2023-01-01T05:26:24;14.80;99.90
11093;DHT22;5600;50.864;6.102;2023-01-01T05:29:27;14.80;99.90
11093;DHT22;5600;50.864;6.102;2023-01-01T05:32:28;14.80;99.90
11093;DHT22;5600;50.864;6.102;2023-01-01T05:35:29;14.80;99.90
11093;DHT22;5600;50.864;6.102;2023-01-01T05:38:30;14.80;99.90
11093;DHT22;5600;50.864;6.102;2023-01-01T05:41:30;14.90;99.90
11093;DHT22;5600;50.864;6.102;2023-01-01T05:47:34;14.80;99.90
11093;DHT22;5600;50.864;6.102;2023-01-01T05:50:35;14.70;99.90
11093;DHT22;5600;50.864;6.102;2023-01-01T05:53:35;14.70;99.90
11093;DHT22;5600;50.864;6.102;2023-01-01T05:56:36;14.70;99.90
11093;DHT22;5600;50.864;6.102;2023-01-01T05:59:37;14.70;99.90
11093;DHT22;5600;50.864;6.102;2023-01-01T06:02:38;14.60;99.90
11093;DHT22;5600;50.864;6.102;2023-01-01T06:05:39;14.60;99.90
11093;DHT22;5600;50.864;6.102;2023-01-01T06:08:40;14.50;99.90
11093;DHT22;5600;50.864;6.102;2023-01-01T06:11:41;14.60;99.90
11093;DHT22;5600;50.864;6.102;2023-01-01T06:17:42;14.70;99.90
11093;DHT22;5600;50.864;6.102;2023-01-01T06:20:43;13.60;99.90
11093;DHT22;5600;50.864;6.102;2023-01-01T06:23:44;14.80;99.90
11093;DHT22;5600;50.864;6.102;2023-01-01T06:29:45;14.80;99.90
11093;DHT22;5600;50.864;6.102;2023-01-01T06:35:47;14.80;99.90
11093;DHT22;5600;50.864;6.102;2023-01-01T06:38:50;14.80;99.90
11093;DHT22;5600;50.864;6.102;2023-01-01T06:41:51;14.80;99.90
11093;DHT22;5600;50.864;6.102;2023-01-01T06:44:51;14.80;99.90
11093;DHT22;5600;50.864;6.102;2023-01-01T06:47:52;14.70;99.90
11093;DHT22;5600;50.864;6.102;2023-01-01T06:50:53;14.70;99.90
11093;DHT22;5600;50.864;6.102;2023-01-01T06:53:56;14.70;99.90
11093;DHT22;5600;50.864;6.102;2023-01-01T06:56:57;14.60;99.90
11093;DHT22;5600;50.864;6.102;2023-01-01T06:59:58;14.60;99.90
11093;DHT22;5600;50.864;6.102;2023-01-01T07:02:58;14.60;99.90
11093;DHT22;5600;50.864;6.102;2023-01-01T07:05:59;14.60;99.90
11093;DHT22;5600;50.864;6.102;2023-01-01T07:09:00;14.50;99.90
11093;DHT22;5600;50.864;6.102;2023-01-01T07:12:01;14.40;99.90
11093;DHT22;5600;50.864;6.102;2023-01-01T07:15:02;14.40;99.90
11093;DHT22;5600;50.864;6.102;2023-01-01T07:18:04;14.20;99.90
11093;DHT22;5600;50.864;6.102;2023-01-01T07:21:06;14.10;99.90
11093;DHT22;5600;50.864;6.102;2023-01-01T07:30:24;13.70;99.90
11093;DHT22;5600;50.864;6.102;2023-01-01T07:33:25;13.80;99.90
11093;DHT22;5600;50.864;6.102;2023-01-01T07:36:26;13.80;99.90
11093;DHT22;5600;50.864;6.102;2023-01-01T07:39:26;13.80;99.90
11093;DHT22;5600;50.864;6.102;2023-01-01T07:42:27;13.90;99.90
11093;DHT22;5600;50.864;6.102;2023-01-01T07:45:29;13.90;99.90
11093;DHT22;5600;50.864;6.102;2023-01-01T07:48:30;13.90;99.90
11093;DHT22;5600;50.864;6.102;2023-01-01T08:00:35;13.90;99.90
11093;DHT22;5600;50.864;6.102;2023-01-01T08:03:35;14.00;99.90
11093;DHT22;5600;50.864;6.102;2023-01-01T08:06:36;14.00;99.90
11093;DHT22;5600;50.864;6.102;2023-01-01T08:09:37;14.00;99.90
11093;DHT22;5600;50.864;6.102;2023-01-01T08:18:40;14.00;99.90
11093;DHT22;5600;50.864;6.102;2023-01-01T08:21:42;14.00;99.90
11093;DHT22;5600;50.864;6.102;2023-01-01T08:24:43;14.00;99.90
11093;DHT22;5600;50.864;6.102;2023-01-01T08:27:43;13.90;99.90
11093;DHT22;5600;50.864;6.102;2023-01-01T08:30:45;14.00;99.90
11093;DHT22;5600;50.864;6.102;2023-01-01T08:33:46;14.00;99.90
11093;DHT22;5600;50.864;6.102;2023-01-01T08:36:47;14.10;99.90
11093;DHT22;5600;50.864;6.102;2023-01-01T08:39:49;14.10;99.90
11093;DHT22;5600;50.864;6.102;2023-01-01T08:42:50;14.00;99.90
11093;DHT22;5600;50.864;6.102;2023-01-01T08:48:52;14.00;99.90
11093;DHT22;5600;50.864;6.102;2023-01-01T08:51:53;14.00;99.90
11093;DHT22;5600;50.864;6.102;2023-01-01T08:57:55;14.10;99.90
11093;DHT22;5600;50.864;6.102;2023-01-01T09:00:56;14.00;99.90
11093;DHT22;5600;50.864;6.102;2023-01-01T09:03:57;14.00;99.90
11093;DHT22;5600;50.864;6.102;2023-01-01T09:06:58;14.10;99.90
11093;DHT22;5600;50.864;6.102;2023-01-01T09:09:58;14.10;99.90
11093;DHT22;5600;50.864;6.102;2023-01-01T09:12:59;14.00;99.90
11093;DHT22;5600;50.864;6.102;2023-01-01T09:25:04;14.20;99.90
11093;DHT22;5600;50.864;6.102;2023-01-01T09:28:11;14.20;99.90
11093;DHT22;5600;50.864;6.102;2023-01-01T09:31:12;14.20;99.90
11093;DHT22;5600;50.864;6.102;2023-01-01T09:34:13;14.20;99.90
11093;DHT22;5600;50.864;6.102;2023-01-01T09:40:42;14.20;99.90
11093;DHT22;5600;50.864;6.102;2023-01-01T09:47:03;14.20;99.90
11093;DHT22;5600;50.864;6.102;2023-01-01T09:50:18;14.20;99.90
11093;DHT22;5600;50.864;6.102;2023-01-01T09:53:33;14.20;99.90
11093;DHT22;5600;50.864;6.102;2023-01-01T09:56:35;14.30;99.90
11093;DHT22;5600;50.864;6.102;2023-01-01T09:59:36;14.30;99.90
11093;DHT22;5600;50.864;6.102;2023-01-01T10:03:05;14.40;99.90
11093;DHT22;5600;50.864;6.102;2023-01-01T10:06:30;14.40;99.90
11093;DHT22;5600;50.864;6.102;2023-01-01T10:12:53;14.50;99.90
11093;DHT22;5600;50.864;6.102;2023-01-01T10:15:58;14.50;99.90
11093;DHT22;5600;50.864;6.102;2023-01-01T10:20:09;14.40;99.90
11093;DHT22;5600;50.864;6.102;2023-01-01T10:22:39;14.40;99.90
11093;DHT22;5600;50.864;6.102;2023-01-01T10:25:42;14.40;99.90
11093;DHT22;5600;50.864;6.102;2023-01-01T10:31:51;14.40;99.90
11093;DHT22;5600;50.864;6.102;2023-01-01T10:34:55;14.40;99.90
11093;DHT22;5600;50.864;6.102;2023-01-01T10:38:00;14.40;99.90
11093;DHT22;5600;50.864;6.102;2023-01-01T10:41:07;14.40;99.90
11093;DHT22;5600;50.864;6.102;2023-01-01T10:44:09;14.40;99.90
11093;DHT22;5600;50.864;6.102;2023-01-01T10:47:28;14.40;99.90
11093;DHT22;5600;50.864;6.102;2023-01-01T10:50:54;14.50;99.90
11093;DHT22;5600;50.864;6.102;2023-01-01T10:53:56;14.60;99.90
11093;DHT22;5600;50.864;6.102;2023-01-01T10:56:57;14.60;99.90
11093;DHT22;5600;50.864;6.102;2023-01-01T11:00:33;14.60;99.90
11093;DHT22;5600;50.864;6.102;2023-01-01T11:03:36;14.50;99.90
11093;DHT22;5600;50.864;6.102;2023-01-01T11:06:42;14.40;99.90
11093;DHT22;5600;50.864;6.102;2023-01-01T11:09:47;14.40;99.90
11093;DHT22;5600;50.864;6.102;2023-01-01T11:12:49;14.40;99.90
11093;DHT22;5600;50.864;6.102;2023-01-01T11:15:54;14.40;99.90
11093;DHT22;5600;50.864;6.102;2023-01-01T11:19:02;14.40;99.90
11093;DHT22;5600;50.864;6.102;2023-01-01T11:22:04;14.40;99.90
11093;DHT22;5600;50.864;6.102;2023-01-01T11:28:19;14.40;99.90
11093;DHT22;5600;50.864;6.102;2023-01-01T11:31:24;14.40;99.90
11093;DHT22;5600;50.864;6.102;2023-01-01T11:34:36;14.40;99.90
11093;DHT22;5600;50.864;6.102;2023-01-01T11:37:38;14.50;99.90
11093;DHT22;5600;50.864;6.102;2023-01-01T11:40:45;14.50;99.90
11093;DHT22;5600;50.864;6.102;2023-01-01T11:43:47;14.50;99.90
11093;DHT22;5600;50.864;6.102;2023-01-01T11:53:32;14.50;99.90
11093;DHT22;5600;50.864;6.102;2023-01-01T11:56:33;14.60;99.90
11093;DHT22;5600;50.864;6.102;2023-01-01T11:59:44;14.60;99.90
11093;DHT22;5600;50.864;6.102;2023-01-01T12:02:59;14.60;99.90
11093;DHT22;5600;50.864;6.102;2023-01-01T12:06:10;14.60;99.90
11093;DHT22;5600;50.864;6.102;2023-01-01T12:09:26;14.60;99.90
11093;DHT22;5600;50.864;6.102;2023-01-01T12:12:40;14.60;99.90
11093;DHT22;5600;50.864;6.102;2023-01-01T12:15:50;14.50;99.90
11093;DHT22;5600;50.864;6.102;2023-01-01T12:19:03;14.50;99.90
11093;DHT22;5600;50.864;6.102;2023-01-01T12:22:15;14.50;99.90
11093;DHT22;5600;50.864;6.102;2023-01-01T12:25:18;14.50;99.90
11093;DHT22;5600;50.864;6.102;2023-01-01T12:31:36;14.50;99.90
11093;DHT22;5600;50.864;6.102;2023-01-01T12:52:16;14.60;99.90
11093;DHT22;5600;50.864;6.102;2023-01-01T12:56:02;14.50;99.90
11093;DHT22;5600;50.864;6.102;2023-01-01T12:58:49;14.50;99.90
11093;DHT22;5600;50.864;6.102;2023-01-01T13:01:55;14.50;99.90
11093;DHT22;5600;50.864;6.102;2023-01-01T13:05:13;14.50;99.90
11093;DHT22;5600;50.864;6.102;2023-01-01T13:08:15;14.40;99.90
11093;DHT22;5600;50.864;6.102;2023-01-01T13:11:16;14.40;99.90
11093;DHT22;5600;50.864;6.102;2023-01-01T13:14:17;14.40;99.90
11093;DHT22;5600;50.864;6.102;2023-01-01T13:17:21;14.50;99.90
11093;DHT22;5600;50.864;6.102;2023-01-01T13:20:23;14.50;99.90
11093;DHT22;5600;50.864;6.102;2023-01-01T13:26:35;14.50;99.90
11093;DHT22;5600;50.864;6.102;2023-01-01T13:29:43;14.50;99.90
11093;DHT22;5600;50.864;6.102;2023-01-01T13:33:17;14.40;99.90
11093;DHT22;5600;50.864;6.102;2023-01-01T13:43:15;14.40;99.90
11093;DHT22;5600;50.864;6.102;2023-01-01T13:46:23;14.40;99.90
11093;DHT22;5600;50.864;6.102;2023-01-01T13:49:39;14.40;99.90
11093;DHT22;5600;50.864;6.102;2023-01-01T13:52:48;14.50;99.90
11093;DHT22;5600;50.864;6.102;2023-01-01T14:05:21;14.50;99.90
11093;DHT22;5600;50.864;6.102;2023-01-01T14:08:33;14.50;99.90
11093;DHT22;5600;50.864;6.102;2023-01-01T14:11:34;14.40;99.90
11093;DHT22;5600;50.864;6.102;2023-01-01T14:14:34;14.40;99.90
11093;DHT22;5600;50.864;6.102;2023-01-01T14:17:35;14.40;99.90
11093;DHT22;5600;50.864;6.102;2023-01-01T14:24:01;14.40;99.90
11093;DHT22;5600;50.864;6.102;2023-01-01T14:27:04;14.40;99.90
11093;DHT22;5600;50.864;6.102;2023-01-01T14:30:06;14.40;99.90
11093;DHT22;5600;50.864;6.102;2023-01-01T14:33:21;14.40;99.90
11093;DHT22;5600;50.864;6.102;2023-01-01T14:36:29;14.30;99.90
11093;DHT22;5600;50.864;6.102;2023-01-01T14:39:32;14.20;99.90
11093;DHT22;5600;50.864;6.102;2023-01-01T14:42:35;14.20;99.90
11093;DHT22;5600;50.864;6.102;2023-01-01T14:45:40;14.20;99.90
11093;DHT22;5600;50.864;6.102;2023-01-01T14:48:48;14.00;99.90
11093;DHT22;5600;50.864;6.102;2023-01-01T14:51:54;14.00;99.90
11093;DHT22;5600;50.864;6.102;2023-01-01T14:54:58;13.90;99.90
11093;DHT22;5600;50.864;6.102;2023-01-01T14:58:00;13.80;99.90
11093;DHT22;5600;50.864;6.102;2023-01-01T15:01:16;13.70;99.90
11093;DHT22;5600;50.864;6.102;2023-01-01T15:04:21;13.60;99.90
11093;DHT22;5600;50.864;6.102;2023-01-01T15:07:25;13.50;99.90
11093;DHT22;5600;50.864;6.102;2023-01-01T15:10:28;13.50;99.90
11093;DHT22;5600;50.864;6.102;2023-01-01T15:16:30;13.10;99.90
11093;DHT22;5600;50.864;6.102;2023-01-01T15:19:31;13.10;99.90
11093;DHT22;5600;50.864;6.102;2023-01-01T15:22:34;12.90;99.90
11093;DHT22;5600;50.864;6.102;2023-01-01T15:25:35;12.80;99.90
11093;DHT22;5600;50.864;6.102;2023-01-01T15:28:40;12.70;99.90
11093;DHT22;5600;50.864;6.102;2023-01-01T15:31:45;12.70;99.90
11093;DHT22;5600;50.864;6.102;2023-01-01T15:34:49;12.70;99.90
11093;DHT22;5600;50.864;6.102;2023-01-01T15:37:53;12.50;99.90
11093;DHT22;5600;50.864;6.102;2023-01-01T15:40:56;12.40;99.90
11093;DHT22;5600;50.864;6.102;2023-01-01T15:44:17;12.20;99.90
11093;DHT22;5600;50.864;6.102;2023-01-01T15:47:19;12.20;99.90
11093;DHT22;5600;50.864;6.102;2023-01-01T15:50:32;12.20;99.90
11093;DHT22;5600;50.864;6.102;2023-01-01T15:53:51;12.00;99.90
11093;DHT22;5600;50.864;6.102;2023-01-01T15:56:52;11.90;99.90
11093;DHT22;5600;50.864;6.102;2023-01-01T15:59:54;11.80;99.90
11093;DHT22;5600;50.864;6.102;2023-01-01T16:03:11;11.80;99.90
11093;DHT22;5600;50.864;6.102;2023-01-01T16:06:16;11.70;99.90
11093;DHT22;5600;50.864;6.102;2023-01-01T16:09:19;11.70;99.90
11093;DHT22;5600;50.864;6.102;2023-01-01T16:12:20;11.60;99.90
11093;DHT22;5600;50.864;6.102;2023-01-01T16:15:21;11.50;99.90
11093;DHT22;5600;50.864;6.102;2023-01-01T16:18:27;11.50;99.90
11093;DHT22;5600;50.864;6.102;2023-01-01T16:21:29;11.50;99.90
11093;DHT22;5600;50.864;6.102;2023-01-01T16:24:33;11.40;99.90
11093;DHT22;5600;50.864;6.102;2023-01-01T16:30:36;11.30;99.90
11093;DHT22;5600;50.864;6.102;2023-01-01T16:33:37;11.20;99.90
11093;DHT22;5600;50.864;6.102;2023-01-01T16:36:40;11.20;99.90
11093;DHT22;5600;50.864;6.102;2023-01-01T16:39:41;11.10;99.90
11093;DHT22;5600;50.864;6.102;2023-01-01T16:42:41;11.10;99.90
11093;DHT22;5600;50.864;6.102;2023-01-01T16:45:43;11.10;99.90
11093;DHT22;5600;50.864;6.102;2023-01-01T16:48:44;11.00;99.90
11093;DHT22;5600;50.864;6.102;2023-01-01T16:51:44;11.00;99.90
11093;DHT22;5600;50.864;6.102;2023-01-01T16:54:45;11.00;99.90
11093;DHT22;5600;50.864;6.102;2023-01-01T16:57:46;11.00;99.90
11093;DHT22;5600;50.864;6.102;2023-01-01T17:00:47;11.00;99.90
11093;DHT22;5600;50.864;6.102;2023-01-01T17:03:48;11.00;99.90
11093;DHT22;5600;50.864;6.102;2023-01-01T17:06:49;10.90;99.90
11093;DHT22;5600;50.864;6.102;2023-01-01T17:09:50;10.90;99.90
11093;DHT22;5600;50.864;6.102;2023-01-01T17:12:50;10.90;99.90
11093;DHT22;5600;50.864;6.102;2023-01-01T17:15:55;10.90;99.90
11093;DHT22;5600;50.864;6.102;2023-01-01T17:18:56;10.70;99.90
11093;DHT22;5600;50.864;6.102;2023-01-01T17:21:57;10.70;99.90
11093;DHT22;5600;50.864;6.102;2023-01-01T17:24:58;10.70;99.90
11093;DHT22;5600;50.864;6.102;2023-01-01T17:27:58;10.60;99.90
11093;DHT22;5600;50.864;6.102;2023-01-01T17:31:09;10.60;99.90
11093;DHT22;5600;50.864;6.102;2023-01-01T17:34:11;10.60;99.90
11093;DHT22;5600;50.864;6.102;2023-01-01T17:40:13;10.50;99.90
11093;DHT22;5600;50.864;6.102;2023-01-01T17:43:14;10.50;99.90
11093;DHT22;5600;50.864;6.102;2023-01-01T17:46:28;10.50;99.90
11093;DHT22;5600;50.864;6.102;2023-01-01T17:49:30;10.50;99.90
11093;DHT22;5600;50.864;6.102;2023-01-01T17:52:30;10.50;99.90
11093;DHT22;5600;50.864;6.102;2023-01-01T17:55:31;10.50;99.90
11093;DHT22;5600;50.864;6.102;2023-01-01T17:58:32;10.50;99.90
11093;DHT22;5600;50.864;6.102;2023-01-01T18:01:33;10.50;99.90
11093;DHT22;5600;50.864;6.102;2023-01-01T18:04:34;10.60;99.90
11093;DHT22;5600;50.864;6.102;2023-01-01T18:10:37;10.50;99.90
11093;DHT22;5600;50.864;6.102;2023-01-01T18:16:42;10.60;99.90
11093;DHT22;5600;50.864;6.102;2023-01-01T18:19:43;10.60;99.90
11093;DHT22;5600;50.864;6.102;2023-01-01T18:22:45;10.60;99.90
11093;DHT22;5600;50.864;6.102;2023-01-01T18:25:46;10.60;99.90
11093;DHT22;5600;50.864;6.102;2023-01-01T18:28:58;10.70;99.90
11093;DHT22;5600;50.864;6.102;2023-01-01T18:31:59;10.70;99.90
11093;DHT22;5600;50.864;6.102;2023-01-01T18:35:00;10.70;99.90
11093;DHT22;5600;50.864;6.102;2023-01-01T18:41:17;10.80;99.90
11093;DHT22;5600;50.864;6.102;2023-01-01T18:44:20;10.80;99.90
11093;DHT22;5600;50.864;6.102;2023-01-01T18:47:21;10.80;99.90
11093;DHT22;5600;50.864;6.102;2023-01-01T18:50:27;10.80;99.90
11093;DHT22;5600;50.864;6.102;2023-01-01T18:59:35;10.70;99.90
11093;DHT22;5600;50.864;6.102;2023-01-01T19:02:40;10.70;99.90
11093;DHT22;5600;50.864;6.102;2023-01-01T19:05:42;10.70;99.90
11093;DHT22;5600;50.864;6.102;2023-01-01T19:08:44;10.60;99.90
11093;DHT22;5600;50.864;6.102;2023-01-01T19:11:46;10.60;99.90
11093;DHT22;5600;50.864;6.102;2023-01-01T19:14:47;10.60;99.90
11093;DHT22;5600;50.864;6.102;2023-01-01T19:17:48;10.60;99.90
11093;DHT22;5600;50.864;6.102;2023-01-01T19:20:58;10.50;99.90
11093;DHT22;5600;50.864;6.102;2023-01-01T19:24:01;10.50;99.90
11093;DHT22;5600;50.864;6.102;2023-01-01T19:27:11;10.40;99.90
11093;DHT22;5600;50.864;6.102;2023-01-01T19:30:21;10.40;99.90
11093;DHT22;5600;50.864;6.102;2023-01-01T19:33:27;10.40;99.90
11093;DHT22;5600;50.864;6.102;2023-01-01T19:36:27;10.30;99.90
11093;DHT22;5600;50.864;6.102;2023-01-01T19:39:28;10.30;99.90
11093;DHT22;5600;50.864;6.102;2023-01-01T19:42:30;10.30;99.90
11093;DHT22;5600;50.864;6.102;2023-01-01T19:45:32;10.30;99.90
11093;DHT22;5600;50.864;6.102;2023-01-01T19:48:33;10.30;99.90
11093;DHT22;5600;50.864;6.102;2023-01-01T19:51:34;10.30;99.90
11093;DHT22;5600;50.864;6.102;2023-01-01T19:54:35;10.30;99.90
11093;DHT22;5600;50.864;6.102;2023-01-01T19:57:35;10.30;99.90
11093;DHT22;5600;50.864;6.102;2023-01-01T20:00:36;10.20;99.90
11093;DHT22;5600;50.864;6.102;2023-01-01T20:03:37;10.30;99.90
11093;DHT22;5600;50.864;6.102;2023-01-01T20:06:38;10.30;99.90
11093;DHT22;5600;50.864;6.102;2023-01-01T20:09:38;10.30;99.90
11093;DHT22;5600;50.864;6.102;2023-01-01T20:12:39;10.30;99.90
11093;DHT22;5600;50.864;6.102;2023-01-01T20:15:40;10.30;99.90
11093;DHT22;5600;50.864;6.102;2023-01-01T20:18:40;10.30;99.90
11093;DHT22;5600;50.864;6.102;2023-01-01T20:21:41;10.40;99.90
11093;DHT22;5600;50.864;6.102;2023-01-01T20:28:02;10.40;99.90
11093;DHT22;5600;50.864;6.102;2023-01-01T20:31:21;10.40;99.90
11093;DHT22;5600;50.864;6.102;2023-01-01T20:34:22;10.40;99.90
11093;DHT22;5600;50.864;6.102;2023-01-01T20:37:23;10.40;99.90
11093;DHT22;5600;50.864;6.102;2023-01-01T20:40:38;10.40;99.90
11093;DHT22;5600;50.864;6.102;2023-01-01T20:43:39;10.40;99.90
11093;DHT22;5600;50.864;6.102;2023-01-01T20:46:40;10.40;99.90
11093;DHT22;5600;50.864;6.102;2023-01-01T20:49:42;10.50;99.90
11093;DHT22;5600;50.864;6.102;2023-01-01T20:52:42;10.50;99.90
11093;DHT22;5600;50.864;6.102;2023-01-01T20:55:43;10.60;99.90
11093;DHT22;5600;50.864;6.102;2023-01-01T20:58:44;10.80;99.90
11093;DHT22;5600;50.864;6.102;2023-01-01T21:01:47;11.00;99.90
11093;DHT22;5600;50.864;6.102;2023-01-01T21:04:47;11.20;99.90
11093;DHT22;5600;50.864;6.102;2023-01-01T21:13:50;11.80;99.90
11093;DHT22;5600;50.864;6.102;2023-01-01T21:16:51;11.90;99.90
11093;DHT22;5600;50.864;6.102;2023-01-01T21:19:54;12.10;99.90
11093;DHT22;5600;50.864;6.102;2023-01-01T21:22:58;12.20;99.90
11093;DHT22;5600;50.864;6.102;2023-01-01T21:25:59;12.40;99.90
11093;DHT22;5600;50.864;6.102;2023-01-01T21:29:03;12.50;99.90
11093;DHT22;5600;50.864;6.102;2023-01-01T21:32:27;12.80;99.90
11093;DHT22;5600;50.864;6.102;2023-01-01T21:35:34;13.10;99.90
11093;DHT22;5600;50.864;6.102;2023-01-01T21:38:34;13.20;99.90
11093;DHT22;5600;50.864;6.102;2023-01-01T21:41:35;13.30;99.90
11093;DHT22;5600;50.864;6.102;2023-01-01T21:44:36;13.40;99.90
11093;DHT22;5600;50.864;6.102;2023-01-01T21:47:37;13.50;99.90
11093;DHT22;5600;50.864;6.102;2023-01-01T21:50:40;13.60;99.90
11093;DHT22;5600;50.864;6.102;2023-01-01T21:53:40;13.70;99.90
11093;DHT22;5600;50.864;6.102;2023-01-01T21:56:50;13.80;99.90
11093;DHT22;5600;50.864;6.102;2023-01-01T21:59:51;13.90;99.90
11093;DHT22;5600;50.864;6.102;2023-01-01T22:02:53;14.00;99.90
11093;DHT22;5600;50.864;6.102;2023-01-01T22:05:54;14.00;99.90
11093;DHT22;5600;50.864;6.102;2023-01-01T22:08:54;14.10;99.90
11093;DHT22;5600;50.864;6.102;2023-01-01T22:18:26;13.40;99.90
11093;DHT22;5600;50.864;6.102;2023-01-01T22:21:30;14.30;99.90
11093;DHT22;5600;50.864;6.102;2023-01-01T22:24:34;14.30;99.90
11093;DHT22;5600;50.864;6.102;2023-01-01T22:27:36;14.40;99.90
11093;DHT22;5600;50.864;6.102;2023-01-01T22:30:42;14.40;99.90
11093;DHT22;5600;50.864;6.102;2023-01-01T22:33:45;14.40;99.90
11093;DHT22;5600;50.864;6.102;2023-01-01T22:36:47;14.50;99.90
11093;DHT22;5600;50.864;6.102;2023-01-01T22:39:48;14.50;99.90
11093;DHT22;5600;50.864;6.102;2023-01-01T22:42:49;14.50;99.90